GZP weather

Gazipa┼ča Airport
Gazipa┼ča, Antalya Province, Turkey

Public forecast

Using degrees Celsius for public forecast. Weather courtesy of forecast.io.

METAR (pilot weather report)

Closest report is Antalya International Airport, 80.8 nm (149.6 km) WNW. Retrieved 2019/06/25 16:20 UTC (36 minutes ago):

LTAI 251620Z 12007KT 100V160 9999 FEW030 29/24 Q1009 NOSIG RMK RWY18C 12007KT RWY36R 12007KT RWY18L 13007KT 100V160

TAF (pilot weather forecast)

Closest forecast is Antalya International Airport, 80.8 nm (149.6 km) WNW. Retrieved 2019/06/25 12:00 UTC (5 hours ago):

TAF LTAI 251040Z 2512/2612 18010KT 9999 FEW030 BECMG 2515/2518 34006KT CAVOK BECMG 2606/2609 18010KT FEW030